Time,TemperatureF,DewpointF,PressureIn,WindDirection,WindDirectionDegrees,WindSpeedMPH,WindSpeedGustMPH,Humidity,HourlyPrecipIn,Conditions,Clouds,dailyrainin,SoftwareType,DateUTC
2013-05-10 00:03:00,69.0,62.0,30.14,NNE,21,0.0,0.0,78,0.00,,,0.00,,2013-05-10 04:03:00,
2013-05-10 00:12:00,69.0,62.0,30.14,NNE,21,0.0,0.0,78,0.00,,,0.00,,2013-05-10 04:12:00,
2013-05-10 00:23:00,69.0,62.0,30.14,NNE,21,0.0,0.0,79,0.00,,,0.00,,2013-05-10 04:23:00,
2013-05-10 00:33:00,68.0,62.0,30.14,NNE,21,0.0,1.0,81,0.00,,,0.00,,2013-05-10 04:33:00,
2013-05-10 00:43:00,68.0,62.0,30.14,NNE,21,0.0,0.0,80,0.00,,,0.00,,2013-05-10 04:43:00,
2013-05-10 00:53:00,68.0,62.0,30.14,NNE,21,0.0,0.0,80,0.00,,,0.00,,2013-05-10 04:53:00,
2013-05-10 01:02:00,67.0,61.0,30.14,NNE,21,0.0,0.0,82,0.00,,,0.00,,2013-05-10 05:02:00,
2013-05-10 01:12:00,67.0,62.0,30.14,NNE,21,0.0,1.0,83,0.00,,,0.00,,2013-05-10 05:12:00,
2013-05-10 01:22:00,67.0,62.0,30.14,NNE,21,0.0,1.0,83,0.00,,,0.00,,2013-05-10 05:22:00,
2013-05-10 01:32:00,67.0,62.0,30.13,NNE,21,0.0,0.0,84,0.00,,,0.00,,2013-05-10 05:32:00,
2013-05-10 01:42:00,66.0,61.0,30.12,NNE,21,0.0,1.0,84,0.00,,,0.00,,2013-05-10 05:42:00,
2013-05-10 01:52:00,66.0,61.0,30.12,NNE,21,0.0,1.0,84,0.00,,,0.00,,2013-05-10 05:52:00,
2013-05-10 02:02:00,66.0,61.0,30.11,NNE,21,0.0,0.0,85,0.00,,,0.00,,2013-05-10 06:02:00,
2013-05-10 02:12:00,66.0,61.0,30.11,NNE,21,0.0,0.0,85,0.00,,,0.00,,2013-05-10 06:12:00,
2013-05-10 02:21:00,66.0,61.0,30.10,NNE,21,0.0,1.0,85,0.00,,,0.00,,2013-05-10 06:21:00,
2013-05-10 02:32:00,66.0,61.0,30.10,NNE,21,0.0,1.0,85,0.00,,,0.00,,2013-05-10 06:32:00,
2013-05-10 02:42:00,66.0,61.0,30.10,NNE,21,0.0,1.0,85,0.00,,,0.00,,2013-05-10 06:42:00,
2013-05-10 02:52:00,65.0,60.0,30.09,NNE,21,0.0,2.0,85,0.00,,,0.00,,2013-05-10 06:52:00,
2013-05-10 03:02:00,65.0,60.0,30.09,NNE,21,0.0,1.0,85,0.00,,,0.00,,2013-05-10 07:02:00,
2013-05-10 03:12:00,65.0,60.0,30.09,NNE,21,0.0,1.0,85,0.00,,,0.00,,2013-05-10 07:12:00,
2013-05-10 03:22:00,65.0,60.0,30.09,NNE,21,0.0,0.0,85,0.00,,,0.00,,2013-05-10 07:22:00,
2013-05-10 03:32:00,65.0,60.0,30.09,NNE,21,0.0,0.0,85,0.00,,,0.00,,2013-05-10 07:32:00,
2013-05-10 03:42:00,65.0,61.0,30.09,NNE,21,0.0,1.0,86,0.00,,,0.00,,2013-05-10 07:42:00,
2013-05-10 03:52:00,65.0,61.0,30.09,NNE,21,0.0,1.0,86,0.00,,,0.00,,2013-05-10 07:52:00,
2013-05-10 04:02:00,64.0,60.0,30.09,NNE,21,0.0,0.0,88,0.00,,,0.00,,2013-05-10 08:02:00,
2013-05-10 04:12:00,64.0,60.0,30.09,NNE,21,0.0,0.0,88,0.00,,,0.00,,2013-05-10 08:12:00,
2013-05-10 04:22:00,65.0,62.0,30.08,NNE,21,0.0,2.0,89,0.00,,,0.00,,2013-05-10 08:22:00,
2013-05-10 04:32:00,65.0,62.0,30.07,NNE,21,0.0,1.0,89,0.00,,,0.00,,2013-05-10 08:32:00,
2013-05-10 04:42:00,65.0,62.0,30.07,NNE,21,0.0,1.0,89,0.00,,,0.00,,2013-05-10 08:42:00,
2013-05-10 04:52:00,65.0,62.0,30.06,NNE,21,0.0,0.0,89,0.00,,,0.00,,2013-05-10 08:52:00,
2013-05-10 05:01:00,65.0,61.0,30.06,NNE,21,0.0,1.0,88,0.00,,,0.00,,2013-05-10 09:01:00,
2013-05-10 05:11:00,65.0,61.0,30.06,NNE,21,0.0,1.0,88,0.00,,,0.00,,2013-05-10 09:11:00,
2013-05-10 05:21:00,65.0,61.0,30.06,NNE,21,0.0,1.0,88,0.00,,,0.00,,2013-05-10 09:21:00,
2013-05-10 05:33:00,65.0,62.0,30.06,NNE,21,0.0,1.0,89,0.00,,,0.00,,2013-05-10 09:33:00,
2013-05-10 05:43:00,65.0,62.0,30.06,NNE,21,0.0,1.0,89,0.00,,,0.00,,2013-05-10 09:43:00,
2013-05-10 05:53:00,65.0,62.0,30.06,NNE,21,0.0,3.0,90,0.00,,,0.00,,2013-05-10 09:53:00,
2013-05-10 06:03:00,65.0,62.0,30.06,NNE,21,0.0,2.0,91,0.00,,,0.00,,2013-05-10 10:03:00,
2013-05-10 06:12:00,65.0,62.0,30.06,NNE,21,0.0,2.0,91,0.00,,,0.00,,2013-05-10 10:12:00,
2013-05-10 06:23:00,66.0,63.0,30.05,NNE,21,0.0,2.0,91,0.00,,,0.00,,2013-05-10 10:23:00,
2013-05-10 06:32:00,67.0,65.0,30.05,ESE,103,1.0,7.0,93,0.00,,,0.00,,2013-05-10 10:32:00,
2013-05-10 06:42:00,67.0,65.0,30.05,ESE,103,1.0,7.0,93,0.00,,,0.00,,2013-05-10 10:42:00,
2013-05-10 06:53:00,68.0,66.0,30.05,ESE,115,2.0,5.0,94,0.00,,,0.00,,2013-05-10 10:53:00,
2013-05-10 07:02:00,68.0,66.0,30.06,ESE,114,1.0,3.0,94,0.00,,,0.00,,2013-05-10 11:02:00,
2013-05-10 07:12:00,68.0,66.0,30.06,ESE,114,1.0,3.0,94,0.00,,,0.00,,2013-05-10 11:12:00,
2013-05-10 07:22:00,68.0,66.0,30.06,ENE,57,1.0,3.0,94,0.00,,,0.00,,2013-05-10 11:22:00,
2013-05-10 07:32:00,68.0,66.0,30.05,SE,130,1.0,5.0,94,0.00,,,0.00,,2013-05-10 11:32:00,
2013-05-10 07:42:00,68.0,66.0,30.05,SE,130,1.0,5.0,94,0.00,,,0.00,,2013-05-10 11:42:00,
2013-05-10 07:52:00,68.0,66.0,30.06,ESE,123,1.0,3.0,94,0.00,,,0.00,,2013-05-10 11:52:00,
2013-05-10 08:02:00,69.0,68.0,30.07,ESE,115,0.0,4.0,95,0.00,,,0.00,,2013-05-10 12:02:00,
2013-05-10 08:12:00,69.0,68.0,30.07,ESE,115,0.0,4.0,95,0.00,,,0.00,,2013-05-10 12:12:00,
2013-05-10 08:22:00,70.0,68.0,30.06,SE,126,3.0,5.0,94,0.00,,,0.00,,2013-05-10 12:22:00,
2013-05-10 08:32:00,71.0,69.0,30.06,SE,128,1.0,4.0,94,0.00,,,0.00,,2013-05-10 12:32:00,
2013-05-10 08:42:00,71.0,69.0,30.06,SE,128,1.0,4.0,94,0.00,,,0.00,,2013-05-10 12:42:00,
2013-05-10 08:52:00,73.0,71.0,30.07,SSE,155,3.0,9.0,92,0.00,,,0.00,,2013-05-10 12:52:00,
2013-05-10 09:01:00,74.0,71.0,30.07,SE,127,2.0,7.0,90,0.00,,,0.00,,2013-05-10 13:01:00,
2013-05-10 09:11:00,74.0,71.0,30.07,SE,127,2.0,7.0,90,0.00,,,0.00,,2013-05-10 13:11:00,
2013-05-10 09:21:00,76.0,72.0,30.08,South,170,4.0,8.0,87,0.00,,,0.00,,2013-05-10 13:21:00,
2013-05-10 09:32:00,77.0,72.0,30.08,ESE,119,6.0,14.0,84,0.00,,,0.00,,2013-05-10 13:32:00,
2013-05-10 09:42:00,77.0,72.0,30.08,ESE,119,6.0,14.0,84,0.00,,,0.00,,2013-05-10 13:42:00,
2013-05-10 09:52:00,79.0,73.0,30.08,SE,128,5.0,10.0,83,0.00,,,0.00,,2013-05-10 13:52:00,
2013-05-10 10:02:00,80.0,74.0,30.07,SE,143,4.0,13.0,81,0.00,,,0.00,,2013-05-10 14:02:00,
2013-05-10 10:11:00,80.0,74.0,30.07,SE,143,4.0,13.0,81,0.00,,,0.00,,2013-05-10 14:11:00,
2013-05-10 10:21:00,81.0,73.0,30.07,SSE,150,5.0,10.0,78,0.00,,,0.00,,2013-05-10 14:21:00,
2013-05-10 10:32:00,81.0,72.0,30.07,SSE,149,5.0,11.0,75,0.00,,,0.00,,2013-05-10 14:32:00,
2013-05-10 10:42:00,81.0,72.0,30.07,SSE,149,5.0,11.0,75,0.00,,,0.00,,2013-05-10 14:42:00,
2013-05-10 10:52:00,81.0,72.0,30.07,SSE,149,5.0,11.0,75,0.00,,,0.00,,2013-05-10 14:52:00,
2013-05-10 11:02:00,83.0,73.0,30.07,ESE,108,7.0,17.0,71,0.00,,,0.00,,2013-05-10 15:02:00,
2013-05-10 11:20:00,-999.0,-99.9,30.07,ESE,108,7.0,17.0,71,0.00,,,0.00,,2013-05-10 15:20:00,
2013-05-10 11:32:00,84.0,72.0,30.07,ESE,118,8.0,14.0,67,0.00,,,0.00,,2013-05-10 15:32:00,
2013-05-10 11:42:00,85.0,73.0,30.07,SSE,152,4.0,13.0,67,0.00,,,0.00,,2013-05-10 15:42:00,
2013-05-10 11:53:00,85.0,73.0,30.07,SSE,152,4.0,13.0,67,0.00,,,0.00,,2013-05-10 15:53:00,
2013-05-10 12:02:00,85.0,73.0,30.07,SSE,152,4.0,13.0,67,0.00,,,0.00,,2013-05-10 16:02:00,
2013-05-10 12:12:00,85.0,73.0,30.07,SSE,152,4.0,13.0,67,0.00,,,0.00,,2013-05-10 16:12:00,
2013-05-10 12:23:00,86.0,70.0,30.08,South,171,4.0,14.0,60,0.00,,,0.00,,2013-05-10 16:23:00,
2013-05-10 12:33:00,86.0,70.0,30.08,South,173,5.0,11.0,59,0.00,,,0.00,,2013-05-10 16:33:00,
2013-05-10 12:43:00,87.0,68.0,30.08,SSW,200,4.0,10.0,54,0.00,,,0.00,,2013-05-10 16:43:00,
2013-05-10 12:53:00,87.0,68.0,30.08,SSW,200,4.0,10.0,54,0.00,,,0.00,,2013-05-10 16:53:00,
2013-05-10 13:02:00,88.0,66.0,30.08,South,180,4.0,12.0,48,0.00,,,0.00,,2013-05-10 17:02:00,
2013-05-10 13:12:00,88.0,66.0,30.08,South,180,4.0,12.0,48,0.00,,,0.00,,2013-05-10 17:12:00,
2013-05-10 13:22:00,88.0,68.0,30.07,SSW,204,2.0,14.0,52,0.00,,,0.00,,2013-05-10 17:22:00,
2013-05-10 13:32:00,88.0,67.0,30.07,SW,222,6.0,12.0,50,0.00,,,0.00,,2013-05-10 17:32:00,
2013-05-10 13:42:00,89.0,67.0,30.07,SE,142,5.0,8.0,48,0.00,,,0.00,,2013-05-10 17:42:00,
2013-05-10 13:52:00,89.0,67.0,30.07,SE,142,5.0,8.0,48,0.00,,,0.00,,2013-05-10 17:52:00,
2013-05-10 14:10:00,-999.0,-99.9,30.07,SE,137,2.0,11.0,47,0.00,,,0.00,,2013-05-10 18:10:00,
2013-05-10 14:22:00,91.0,70.0,30.06,SW,217,5.0,8.0,51,0.00,,,0.00,,2013-05-10 18:22:00,
2013-05-10 14:34:00,91.0,70.0,30.06,West,265,6.0,11.0,50,0.00,,,0.00,,2013-05-10 18:34:00,
2013-05-10 14:43:00,91.0,68.0,30.05,WSW,254,3.0,9.0,47,0.00,,,0.00,,2013-05-10 18:43:00,
2013-05-10 14:54:00,91.0,68.0,30.05,WSW,254,3.0,9.0,47,0.00,,,0.00,,2013-05-10 18:54:00,
2013-05-10 15:02:00,91.0,67.0,30.05,WNW,300,2.0,6.0,46,0.00,,,0.00,,2013-05-10 19:02:00,
2013-05-10 15:11:00,91.0,67.0,30.05,WNW,300,2.0,6.0,46,0.00,,,0.00,,2013-05-10 19:11:00,
2013-05-10 15:21:00,92.0,69.0,30.04,West,265,3.0,9.0,47,0.00,,,0.00,,2013-05-10 19:21:00,
2013-05-10 15:32:00,92.0,70.0,30.03,West,266,4.0,10.0,49,0.00,,,0.00,,2013-05-10 19:32:00,
2013-05-10 15:42:00,92.0,70.0,30.03,West,266,4.0,10.0,49,0.00,,,0.00,,2013-05-10 19:42:00,
2013-05-10 15:52:00,92.0,69.0,30.03,WSW,252,3.0,8.0,48,0.00,,,0.00,,2013-05-10 19:52:00,
2013-05-10 16:02:00,92.0,69.0,30.03,West,261,4.0,9.0,47,0.00,,,0.00,,2013-05-10 20:02:00,
2013-05-10 16:12:00,92.0,69.0,30.03,West,261,4.0,9.0,47,0.00,,,0.00,,2013-05-10 20:12:00,
2013-05-10 16:22:00,92.0,68.0,30.03,West,277,5.0,10.0,46,0.00,,,0.00,,2013-05-10 20:22:00,
2013-05-10 16:32:00,92.0,69.0,30.02,SW,236,6.0,11.0,48,0.00,,,0.00,,2013-05-10 20:32:00,
2013-05-10 16:42:00,92.0,69.0,30.02,SW,236,6.0,11.0,48,0.00,,,0.00,,2013-05-10 20:42:00,
2013-05-10 16:52:00,90.0,69.0,30.02,West,259,6.0,13.0,50,0.00,,,0.00,,2013-05-10 20:52:00,
2013-05-10 17:02:00,89.0,69.0,30.02,SSW,209,7.0,14.0,52,0.00,,,0.00,,2013-05-10 21:02:00,
2013-05-10 17:11:00,89.0,69.0,30.02,SSW,209,7.0,14.0,52,0.00,,,0.00,,2013-05-10 21:11:00,
2013-05-10 17:25:00,88.0,69.0,30.01,WSW,242,7.0,12.0,53,0.00,,,0.00,,2013-05-10 21:25:00,
2013-05-10 17:32:00,88.0,67.0,30.02,WSW,242,7.0,12.0,50,0.00,,,0.00,,2013-05-10 21:32:00,
2013-05-10 17:43:00,88.0,67.0,30.02,WSW,242,7.0,12.0,50,0.00,,,0.00,,2013-05-10 21:43:00,
2013-05-10 17:53:00,87.0,67.0,30.01,SW,231,7.0,13.0,52,0.00,,,0.00,,2013-05-10 21:53:00,
2013-05-10 18:02:00,87.0,66.0,30.01,West,268,5.0,11.0,50,0.00,,,0.00,,2013-05-10 22:02:00,
2013-05-10 18:13:00,87.0,66.0,30.01,West,268,5.0,11.0,50,0.00,,,0.00,,2013-05-10 22:13:00,
2013-05-10 18:22:00,87.0,68.0,30.00,WSW,255,6.0,10.0,53,0.00,,,0.00,,2013-05-10 22:22:00,
2013-05-10 18:32:00,87.0,69.0,30.00,WSW,244,5.0,10.0,55,0.00,,,0.00,,2013-05-10 22:32:00,
2013-05-10 18:42:00,86.0,69.0,29.99,SW,219,5.0,9.0,57,0.00,,,0.00,,2013-05-10 22:42:00,
2013-05-10 18:52:00,86.0,69.0,29.99,SW,219,5.0,9.0,57,0.00,,,0.00,,2013-05-10 22:52:00,
2013-05-10 19:02:00,86.0,69.0,29.99,SW,235,4.0,8.0,57,0.00,,,0.00,,2013-05-10 23:02:00,
2013-05-10 19:12:00,86.0,69.0,29.99,SW,235,4.0,8.0,57,0.00,,,0.00,,2013-05-10 23:12:00,
2013-05-10 19:22:00,84.0,69.0,29.99,SW,229,3.0,7.0,60,0.00,,,0.00,,2013-05-10 23:22:00,
2013-05-10 19:33:00,83.0,69.0,29.99,WSW,242,2.0,6.0,63,0.00,,,0.00,,2013-05-10 23:33:00,
2013-05-10 19:42:00,83.0,69.0,29.99,WSW,242,2.0,6.0,63,0.00,,,0.00,,2013-05-10 23:42:00,
2013-05-10 19:52:00,82.0,69.0,29.99,SW,226,3.0,8.0,66,0.00,,,0.00,,2013-05-10 23:52:00,
2013-05-10 20:02:00,82.0,71.0,30.00,SW,223,2.0,8.0,69,0.00,,,0.00,,2013-05-11 00:02:00,
2013-05-10 20:11:00,82.0,71.0,30.00,SW,223,2.0,8.0,69,0.00,,,0.00,,2013-05-11 00:11:00,
2013-05-10 20:21:00,81.0,71.0,30.00,SW,229,2.0,5.0,71,0.00,,,0.00,,2013-05-11 00:21:00,
2013-05-10 20:32:00,80.0,70.0,30.01,SW,227,0.0,4.0,72,0.00,,,0.00,,2013-05-11 00:32:00,
2013-05-10 20:42:00,80.0,70.0,30.01,SW,227,0.0,4.0,72,0.00,,,0.00,,2013-05-11 00:42:00,
2013-05-10 20:52:00,79.0,70.0,30.01,SW,227,0.0,3.0,74,0.00,,,0.00,,2013-05-11 00:52:00,
2013-05-10 21:01:00,79.0,70.0,30.02,SW,227,1.0,3.0,75,0.00,,,0.00,,2013-05-11 01:01:00,
2013-05-10 21:11:00,79.0,70.0,30.02,SW,227,1.0,3.0,75,0.00,,,0.00,,2013-05-11 01:11:00,
2013-05-10 21:21:00,78.0,70.0,30.03,SW,227,1.0,3.0,77,0.00,,,0.00,,2013-05-11 01:21:00,
2013-05-10 21:32:00,77.0,70.0,30.03,SW,227,1.0,4.0,79,0.00,,,0.00,,2013-05-11 01:32:00,
2013-05-10 21:42:00,77.0,70.0,30.03,SW,227,1.0,4.0,79,0.00,,,0.00,,2013-05-11 01:42:00,
2013-05-10 21:52:00,77.0,70.0,30.02,SW,227,1.0,4.0,80,0.00,,,0.00,,2013-05-11 01:52:00,
2013-05-10 22:02:00,76.0,70.0,30.02,SW,227,1.0,4.0,81,0.00,,,0.00,,2013-05-11 02:02:00,
2013-05-10 22:11:00,76.0,70.0,30.02,SW,227,1.0,4.0,81,0.00,,,0.00,,2013-05-11 02:11:00,
2013-05-10 22:22:00,76.0,70.0,30.02,SW,227,1.0,3.0,83,0.00,,,0.00,,2013-05-11 02:22:00,
2013-05-10 22:32:00,75.0,69.0,30.03,SW,227,0.0,2.0,83,0.00,,,0.00,,2013-05-11 02:32:00,
2013-05-10 22:42:00,75.0,69.0,30.03,SW,227,0.0,2.0,83,0.00,,,0.00,,2013-05-11 02:42:00,
2013-05-10 22:52:00,75.0,70.0,30.03,SW,227,0.0,2.0,85,0.00,,,0.00,,2013-05-11 02:52:00,
2013-05-10 23:01:00,75.0,70.0,30.04,SW,227,0.0,2.0,85,0.00,,,0.00,,2013-05-11 03:01:00,
2013-05-10 23:11:00,75.0,70.0,30.04,SW,227,0.0,2.0,85,0.00,,,0.00,,2013-05-11 03:11:00,
2013-05-10 23:21:00,74.0,70.0,30.05,SW,227,0.0,0.0,86,0.00,,,0.00,,2013-05-11 03:21:00,
2013-05-10 23:33:00,74.0,70.0,30.05,SW,227,0.0,0.0,86,0.00,,,0.00,,2013-05-11 03:33:00,
2013-05-10 23:42:00,74.0,70.0,30.05,SW,227,0.0,0.0,86,0.00,,,0.00,,2013-05-11 03:42:00,
2013-05-10 23:53:00,74.0,70.0,30.06,SW,227,0.0,0.0,87,0.00,,,0.00,,2013-05-11 03:53:00,